Time;durP1;ratioP1;P1;durP2;ratioP2;P2;SDS_P1;SDS_P2;PMS_P1;PMS_P2;Temp;Humidity;BMP_temperature;BMP_pressure;BME280_temperature;BME280_humidity;BME280_pressure;Samples;Min_cycle;Max_cycle;Signal;HPM_P1;HPM_P2
2021/07/09 00:01:14;;;;;;;0.10;0.10;;;22.60;82.50;;;;;;4208210;28;20474;-48
2021/07/09 00:03:36;;;;;;;0.47;0.47;;;22.60;83.40;;;;;;4193485;28;20063;-51
2021/07/09 00:05:59;;;;;;;0.57;0.57;;;22.60;82.60;;;;;;4190956;28;20451;-48
2021/07/09 00:08:21;;;;;;;0.20;0.20;;;22.60;82.60;;;;;;4189512;28;21726;-51
2021/07/09 00:10:43;;;;;;;0.00;0.00;;;22.60;82.70;;;;;;4206720;28;20131;-53
2021/07/09 00:13:07;;;;;;;0.10;0.10;;;22.60;82.60;;;;;;4208846;28;20059;-51
2021/07/09 00:15:29;;;;;;;0.00;0.00;;;22.60;82.70;;;;;;4208478;28;20047;-54
2021/07/09 00:17:51;;;;;;;0.00;0.00;;;22.60;82.70;;;;;;4208635;28;20117;-52
2021/07/09 00:20:13;;;;;;;0.70;0.70;;;22.50;82.60;;;;;;4208783;28;20055;-52
2021/07/09 00:22:37;;;;;;;0.00;0.00;;;22.50;82.60;;;;;;4206964;28;20453;-49
2021/07/09 00:25:01;;;;;;;0.30;0.30;;;22.50;82.60;;;;;;4199145;27;20138;-53
2021/07/09 00:27:23;;;;;;;0.45;0.45;;;22.50;83.50;;;;;;4208560;27;20044;-49
2021/07/09 00:29:46;;;;;;;0.00;0.00;;;22.50;82.60;;;;;;4206016;28;20044;-52
2021/07/09 00:32:09;;;;;;;0.00;0.00;;;22.50;82.60;;;;;;4208280;28;20056;-53
2021/07/09 00:34:31;;;;;;;0.32;0.32;;;22.50;82.60;;;;;;4208189;28;20042;-54
2021/07/09 00:36:53;;;;;;;0.00;0.00;;;22.50;82.60;;;;;;4191936;28;20410;-53
2021/07/09 00:39:16;;;;;;;0.05;0.05;;;22.50;82.60;;;;;;4206374;28;20055;-48
2021/07/09 00:41:39;;;;;;;0.00;0.00;;;22.50;82.70;;;;;;4206714;28;20074;-54
2021/07/09 00:44:01;;;;;;;0.47;0.47;;;22.50;82.70;;;;;;4208207;28;20047;-54
2021/07/09 00:46:32;;;;;;;0.17;0.17;;;22.50;82.70;;;;;;4208344;28;20076;-54
2021/07/09 00:48:54;;;;;;;0.32;0.32;;;22.50;82.60;;;;;;4191259;28;21469;-52
2021/07/09 00:51:17;;;;;;;0.00;0.00;;;22.50;82.70;;;;;;4191576;28;20483;-54
2021/07/09 00:53:38;;;;;;;0.00;0.00;;;22.50;82.70;;;;;;4191292;28;20487;-52
2021/07/09 00:56:02;;;;;;;0.55;0.55;;;22.50;82.60;;;;;;4191475;28;20045;-52
2021/07/09 00:58:24;;;;;;;0.20;0.20;;;22.40;82.60;;;;;;4191143;28;20490;-53
2021/07/09 01:00:46;;;;;;;0.00;0.00;;;22.50;82.70;;;;;;4206723;28;20048;-50
2021/07/09 01:03:10;;;;;;;0.03;0.03;;;22.40;82.70;;;;;;4207161;28;20063;-52
2021/07/09 01:05:32;;;;;;;0.10;0.10;;;22.40;82.70;;;;;;4206696;28;20070;-53
2021/07/09 01:07:55;;;;;;;0.00;0.00;;;22.40;82.70;;;;;;4207932;28;20447;-52
2021/07/09 01:10:19;;;;;;;0.30;0.30;;;22.40;82.70;;;;;;4191979;27;20117;-51
2021/07/09 01:12:41;;;;;;;0.08;0.08;;;22.40;82.70;;;;;;4190591;28;20052;-50
2021/07/09 01:15:05;;;;;;;0.13;0.13;;;22.40;82.70;;;;;;4191084;28;20506;-54
2021/07/09 01:17:27;;;;;;;0.70;0.68;;;22.40;82.70;;;;;;4191290;28;20036;-52
2021/07/09 01:19:54;;;;;;;0.35;0.35;;;22.40;82.70;;;;;;4191123;28;20052;-51
2021/07/09 01:22:16;;;;;;;0.10;0.10;;;22.40;82.70;;;;;;4190977;28;20514;-51
2021/07/09 01:24:40;;;;;;;0.08;0.08;;;22.40;82.70;;;;;;4207428;28;20064;-51
2021/07/09 01:27:03;;;;;;;0.45;0.45;;;22.40;83.60;;;;;;4207778;28;20043;-50
2021/07/09 01:29:26;;;;;;;0.47;0.47;;;22.40;82.70;;;;;;4207565;28;20139;-53
2021/07/09 01:31:48;;;;;;;0.10;0.10;;;22.40;82.70;;;;;;4207801;28;20051;-51
2021/07/09 01:34:10;;;;;;;0.10;0.10;;;22.30;82.70;;;;;;4207666;28;20100;-51
2021/07/09 01:36:32;;;;;;;0.03;0.03;;;22.40;82.80;;;;;;4207599;28;20446;-52
2021/07/09 01:38:55;;;;;;;0.00;0.00;;;22.40;82.80;;;;;;4208045;28;20138;-49
2021/07/09 01:41:20;;;;;;;0.57;0.57;;;22.30;82.70;;;;;;4207700;28;20055;-53
2021/07/09 01:43:42;;;;;;;0.30;0.30;;;22.30;82.70;;;;;;4207319;28;20078;-50
2021/07/09 01:46:04;;;;;;;0.10;0.10;;;22.30;82.70;;;;;;4211155;28;20074;-51
2021/07/09 01:48:26;;;;;;;0.55;0.55;;;22.30;82.80;;;;;;4192246;28;20521;-52
2021/07/09 01:50:48;;;;;;;0.22;0.22;;;22.30;82.70;;;;;;4194574;28;20494;-49
2021/07/09 01:53:11;;;;;;;0.13;0.13;;;22.30;82.70;;;;;;4194150;28;20167;-51
2021/07/09 01:55:33;;;;;;;0.30;0.30;;;22.30;82.80;;;;;;4194178;28;20098;-52
2021/07/09 01:57:57;;;;;;;0.00;0.00;;;22.30;82.80;;;;;;4193670;28;20131;-53
2021/07/09 02:00:20;;;;;;;0.35;0.35;;;22.30;82.80;;;;;;4194099;28;20049;-52
2021/07/09 02:02:44;;;;;;;0.00;0.00;;;22.30;82.80;;;;;;4176078;28;20483;-52
2021/07/09 02:05:09;;;;;;;0.05;0.05;;;22.30;82.80;;;;;;4190752;28;20048;-49
2021/07/09 02:07:31;;;;;;;0.00;0.00;;;22.20;82.80;;;;;;4193758;28;20056;-50
2021/07/09 02:09:55;;;;;;;0.00;0.00;;;22.20;82.90;;;;;;4193640;28;20048;-53
2021/07/09 02:12:20;;;;;;;0.10;0.10;;;22.20;83.10;;;;;;4210870;28;20101;-52
2021/07/09 02:14:44;;;;;;;0.00;0.00;;;22.20;83.10;;;;;;4210544;28;20508;-52
2021/07/09 02:17:09;;;;;;;0.00;0.00;;;22.20;83.00;;;;;;4210763;28;20082;-48
2021/07/09 02:19:31;;;;;;;0.32;0.32;;;22.20;83.00;;;;;;4210922;28;20036;-53
2021/07/09 02:21:57;;;;;;;0.03;0.03;;;22.20;83.00;;;;;;4208582;28;20067;-50
2021/07/09 02:24:20;;;;;;;0.60;0.45;;;22.20;83.00;;;;;;4210269;28;20060;-51
2021/07/09 02:26:42;;;;;;;0.03;0.03;;;22.20;82.90;;;;;;4193557;28;20054;-52
2021/07/09 02:29:04;;;;;;;0.00;0.00;;;22.20;83.00;;;;;;4210313;28;20066;-49
2021/07/09 02:31:28;;;;;;;0.00;0.00;;;22.20;83.00;;;;;;4210312;28;20486;-51
2021/07/09 02:33:50;;;;;;;0.10;0.10;;;22.20;82.90;;;;;;4210529;28;20093;-52
2021/07/09 02:36:12;;;;;;;0.10;0.10;;;22.20;83.00;;;;;;4210705;28;20055;-48
2021/07/09 02:38:34;;;;;;;1.08;0.80;;;22.20;82.90;;;;;;4210677;28;20506;-50
2021/07/09 02:40:56;;;;;;;0.20;0.20;;;22.20;82.90;;;;;;4207903;28;20414;-48
2021/07/09 02:43:18;;;;;;;0.10;0.10;;;22.10;82.90;;;;;;4209985;28;20047;-47
2021/07/09 02:45:40;;;;;;;0.00;0.00;;;22.10;82.80;;;;;;4210182;28;20502;-50
2021/07/09 02:48:10;;;;;;;0.00;0.00;;;22.10;82.90;;;;;;4209971;28;20126;-53
2021/07/09 02:50:32;;;;;;;0.00;0.00;;;22.10;82.90;;;;;;4210062;28;20067;-54
2021/07/09 02:52:54;;;;;;;0.35;0.35;;;22.10;82.90;;;;;;4210241;28;20105;-52
2021/07/09 02:55:17;;;;;;;2.50;1.65;;;22.10;82.80;;;;;;4209778;28;20059;-51
2021/07/09 02:57:41;;;;;;;0.17;0.17;;;22.10;83.80;;;;;;4209838;28;20062;-53
2021/07/09 03:00:05;;;;;;;0.08;0.08;;;22.10;82.90;;;;;;4209608;28;20063;-53
2021/07/09 03:02:31;;;;;;;0.50;0.50;;;22.10;82.90;;;;;;4193422;28;20071;-49
2021/07/09 03:04:54;;;;;;;0.25;0.25;;;22.10;82.80;;;;;;4192815;28;20053;-47
2021/07/09 03:07:16;;;;;;;0.20;0.20;;;22.10;82.90;;;;;;4193028;28;20414;-51
2021/07/09 03:09:38;;;;;;;0.50;0.50;;;22.10;82.80;;;;;;4193066;28;20052;-53
2021/07/09 03:12:01;;;;;;;0.00;0.00;;;22.10;82.80;;;;;;4192929;28;20057;-51
2021/07/09 03:14:23;;;;;;;0.00;0.00;;;22.10;82.80;;;;;;4201570;28;20161;-55
2021/07/09 03:16:45;;;;;;;0.20;0.20;;;22.00;82.90;;;;;;4209562;28;20048;-51
2021/07/09 03:19:08;;;;;;;0.25;0.25;;;22.00;83.70;;;;;;4209639;28;20070;-52
2021/07/09 03:21:32;;;;;;;0.15;0.15;;;22.00;82.80;;;;;;4192003;28;20064;-50
2021/07/09 03:23:54;;;;;;;0.40;0.40;;;22.00;82.90;;;;;;4192823;28;20067;-53
2021/07/09 03:26:16;;;;;;;0.00;0.00;;;22.00;82.90;;;;;;4192820;28;20052;-53
2021/07/09 03:28:38;;;;;;;0.13;0.13;;;22.00;82.90;;;;;;4192257;28;20413;-51
2021/07/09 03:31:01;;;;;;;0.00;0.00;;;22.00;82.90;;;;;;4209178;28;20146;-50
2021/07/09 03:33:23;;;;;;;0.00;0.00;;;22.00;82.90;;;;;;4209587;28;20184;-51
2021/07/09 03:35:45;;;;;;;0.63;0.63;;;22.00;83.80;;;;;;4209445;28;20044;-51
2021/07/09 03:38:09;;;;;;;0.10;0.10;;;22.00;83.00;;;;;;4209453;28;20052;-48
2021/07/09 03:40:31;;;;;;;0.00;0.00;;;22.00;83.90;;;;;;4209170;28;20109;-52
2021/07/09 03:42:53;;;;;;;0.00;0.00;;;21.90;83.00;;;;;;4208587;28;20494;-53
2021/07/09 03:45:15;;;;;;;0.80;0.80;;;22.00;83.10;;;;;;4209286;28;20046;-52
2021/07/09 03:47:37;;;;;;;0.00;0.00;;;22.00;83.10;;;;;;4209389;28;20570;-49
2021/07/09 03:49:59;;;;;;;0.00;0.00;;;21.90;83.10;;;;;;4209214;28;20100;-53
2021/07/09 03:52:21;;;;;;;0.00;0.00;;;21.90;83.10;;;;;;4208660;28;20055;-48
2021/07/09 03:54:45;;;;;;;0.00;0.00;;;21.90;83.10;;;;;;4208866;28;20128;-50
2021/07/09 03:57:07;;;;;;;0.20;0.20;;;21.90;83.10;;;;;;4208362;28;20490;-54
2021/07/09 03:59:29;;;;;;;0.03;0.03;;;21.90;83.10;;;;;;4208482;28;20141;-51
2021/07/09 04:01:52;;;;;;;0.30;0.30;;;21.90;83.10;;;;;;4208968;28;20368;-50
2021/07/09 04:04:14;;;;;;;0.13;0.13;;;21.90;83.10;;;;;;4209128;28;20044;-51
2021/07/09 04:06:36;;;;;;;0.10;0.10;;;21.90;83.20;;;;;;4208588;28;20040;-51
2021/07/09 04:08:58;;;;;;;0.10;0.10;;;21.90;83.20;;;;;;4208736;28;20052;-50
2021/07/09 04:11:22;;;;;;;0.38;0.22;;;21.90;83.20;;;;;;4208565;28;20505;-48
2021/07/09 04:13:44;;;;;;;0.25;0.25;;;21.90;83.30;;;;;;4208323;28;20076;-51
2021/07/09 04:16:06;;;;;;;0.80;0.80;;;21.90;83.20;;;;;;4208642;28;20048;-51
2021/07/09 04:18:28;;;;;;;0.20;0.20;;;21.80;83.20;;;;;;4208587;28;20127;-50
2021/07/09 04:20:50;;;;;;;0.73;0.73;;;21.80;83.20;;;;;;4192179;28;20483;-48
2021/07/09 04:23:14;;;;;;;0.05;0.05;;;21.80;83.30;;;;;;4191753;28;20060;-50
2021/07/09 04:25:36;;;;;;;0.30;0.30;;;21.80;83.30;;;;;;4202523;28;20047;-48
2021/07/09 04:28:00;;;;;;;0.20;0.20;;;21.80;83.30;;;;;;4208384;28;20506;-48
2021/07/09 04:30:22;;;;;;;1.75;1.45;;;21.80;83.40;;;;;;4208826;28;20502;-53
2021/07/09 04:32:45;;;;;;;0.10;0.10;;;21.80;83.30;;;;;;4208626;28;20051;-50
2021/07/09 04:35:08;;;;;;;0.20;0.20;;;21.80;83.40;;;;;;4208233;28;20056;-50
2021/07/09 04:37:31;;;;;;;0.00;0.00;;;21.80;83.40;;;;;;4208247;28;20520;-51
2021/07/09 04:39:52;;;;;;;0.10;0.10;;;21.80;83.40;;;;;;4206503;27;20067;-49
2021/07/09 04:42:15;;;;;;;0.08;0.08;;;21.80;83.40;;;;;;4200870;28;20048;-51
2021/07/09 04:44:38;;;;;;;0.10;0.10;;;21.80;83.50;;;;;;4181619;28;20063;-50
2021/07/09 04:47:00;;;;;;;0.03;0.03;;;21.80;83.50;;;;;;4193324;28;20086;-52
2021/07/09 04:49:23;;;;;;;0.00;0.00;;;21.80;83.60;;;;;;4208047;28;20063;-52
2021/07/09 04:51:46;;;;;;;0.85;0.85;;;21.80;83.60;;;;;;4208372;28;20048;-52
2021/07/09 04:54:08;;;;;;;0.30;0.30;;;21.80;83.60;;;;;;4207673;28;20142;-47
2021/07/09 04:56:30;;;;;;;0.52;0.52;;;21.80;83.60;;;;;;4208290;28;20134;-48
2021/07/09 04:58:53;;;;;;;0.32;0.32;;;21.80;83.60;;;;;;4191340;28;20075;-49
2021/07/09 05:01:16;;;;;;;2.83;0.73;;;21.80;83.60;;;;;;4191288;28;20044;-52
2021/07/09 05:03:39;;;;;;;0.00;0.00;;;21.80;83.70;;;;;;4191254;28;20068;-51
2021/07/09 05:06:01;;;;;;;0.30;0.30;;;21.80;83.70;;;;;;4191344;28;20097;-52
2021/07/09 05:08:23;;;;;;;2.17;1.10;;;21.80;83.70;;;;;;4201915;28;20048;-51
2021/07/09 05:10:45;;;;;;;0.17;0.17;;;21.80;83.60;;;;;;4207724;28;20071;-53
2021/07/09 05:13:08;;;;;;;2.20;1.00;;;21.80;83.60;;;;;;4207635;28;20055;-52
2021/07/09 05:15:30;;;;;;;0.68;0.68;;;21.80;83.70;;;;;;4207716;28;20051;-50
2021/07/09 05:17:53;;;;;;;0.38;0.38;;;21.80;83.60;;;;;;4207838;27;20410;-51
2021/07/09 05:20:16;;;;;;;0.50;0.50;;;21.80;83.60;;;;;;4205798;27;20044;-51
2021/07/09 05:22:38;;;;;;;0.00;0.00;;;21.80;83.60;;;;;;4208101;28;21061;-50
2021/07/09 05:25:00;;;;;;;0.30;0.30;;;21.80;83.60;;;;;;4207845;28;20081;-51
2021/07/09 05:27:23;;;;;;;0.10;0.10;;;21.80;83.70;;;;;;4207423;28;20040;-50
2021/07/09 05:29:45;;;;;;;0.68;0.68;;;21.80;84.00;;;;;;4207699;28;20391;-47
2021/07/09 05:32:08;;;;;;;0.05;0.05;;;21.80;84.20;;;;;;4191092;28;20107;-50
2021/07/09 05:34:32;;;;;;;1.65;1.30;;;21.80;84.10;;;;;;4191209;28;20495;-47
2021/07/09 05:36:54;;;;;;;1.10;0.45;;;21.80;84.20;;;;;;4191150;28;20490;-56
2021/07/09 05:39:16;;;;;;;0.25;0.25;;;21.80;84.30;;;;;;4190409;28;20048;-53
2021/07/09 05:41:38;;;;;;;1.10;0.38;;;21.80;84.40;;;;;;4191139;28;20766;-52
2021/07/09 05:44:00;;;;;;;0.13;0.13;;;21.90;84.20;;;;;;4191145;28;20049;-48
2021/07/09 05:46:22;;;;;;;4.38;2.30;;;21.90;84.00;;;;;;4207584;27;20044;-50
2021/07/09 05:48:44;;;;;;;0.28;0.28;;;21.90;83.90;;;;;;4198352;27;20475;-50
2021/07/09 05:51:08;;;;;;;0.45;0.45;;;21.90;83.80;;;;;;4190908;27;20044;-51
2021/07/09 05:53:31;;;;;;;0.00;0.00;;;21.90;83.80;;;;;;4190622;28;20048;-47
2021/07/09 05:55:52;;;;;;;0.57;0.57;;;21.80;83.70;;;;;;4200759;28;20457;-52
2021/07/09 05:58:15;;;;;;;0.32;0.32;;;21.80;83.70;;;;;;4207540;28;20410;-52
2021/07/09 06:00:39;;;;;;;0.10;0.10;;;21.80;83.60;;;;;;4207568;28;20048;-49
2021/07/09 06:03:01;;;;;;;0.03;0.03;;;21.80;83.60;;;;;;4207658;28;20048;-50
2021/07/09 06:05:24;;;;;;;0.00;0.00;;;21.80;83.60;;;;;;4207437;28;20048;-51
2021/07/09 06:07:48;;;;;;;0.47;0.47;;;21.80;83.60;;;;;;4190616;28;20735;-47
2021/07/09 06:10:12;;;;;;;1.20;1.20;;;21.80;83.60;;;;;;4188960;28;20045;-48
2021/07/09 06:12:34;;;;;;;1.27;0.70;;;21.80;83.60;;;;;;4206967;28;20052;-50
2021/07/09 06:14:56;;;;;;;0.17;0.17;;;21.80;83.50;;;;;;4206644;28;20040;-47
2021/07/09 06:17:19;;;;;;;0.25;0.25;;;21.80;83.40;;;;;;4206778;28;20044;-50
2021/07/09 06:19:41;;;;;;;0.00;0.00;;;21.80;83.40;;;;;;4205346;28;20498;-50
2021/07/09 06:22:04;;;;;;;0.00;0.00;;;21.80;83.40;;;;;;4207630;28;20079;-48
2021/07/09 06:24:27;;;;;;;0.10;0.10;;;21.80;83.30;;;;;;4207330;28;20126;-48
2021/07/09 06:26:49;;;;;;;0.65;0.50;;;21.90;83.30;;;;;;4206890;28;20051;-48
2021/07/09 06:29:12;;;;;;;0.10;0.10;;;21.90;83.20;;;;;;4207007;28;20117;-53
2021/07/09 06:31:34;;;;;;;0.00;0.00;;;21.90;83.10;;;;;;4208542;28;20192;-55
2021/07/09 06:33:57;;;;;;;0.00;0.00;;;21.90;83.20;;;;;;4193565;28;20476;-47
2021/07/09 06:36:19;;;;;;;0.93;0.93;;;21.90;83.80;;;;;;4193569;28;20102;-46
2021/07/09 06:38:41;;;;;;;0.63;0.63;;;22.00;84.10;;;;;;4193759;28;20053;-49
2021/07/09 06:41:05;;;;;;;2.38;2.28;;;22.00;83.80;;;;;;4193354;28;20071;-52
2021/07/09 06:43:27;;;;;;;0.68;0.68;;;22.10;83.40;;;;;;4193458;28;20055;-49
2021/07/09 06:45:49;;;;;;;0.17;0.17;;;22.10;83.20;;;;;;4193230;28;20049;-47
2021/07/09 06:48:11;;;;;;;3.20;1.38;;;22.10;83.10;;;;;;4193493;28;20045;-50
2021/07/09 06:50:34;;;;;;;0.52;0.52;;;22.10;82.80;;;;;;4193529;28;20426;-49
2021/07/09 06:52:56;;;;;;;0.20;0.20;;;22.10;82.80;;;;;;4193560;28;20439;-49
2021/07/09 06:55:18;;;;;;;1.52;1.10;;;22.20;82.60;;;;;;4193118;28;20045;-47
2021/07/09 06:57:46;;;;;;;0.10;0.10;;;22.20;82.50;;;;;;4201646;27;20068;-50
2021/07/09 07:00:09;;;;;;;0.88;0.88;;;22.20;82.30;;;;;;4204656;28;20117;-49
2021/07/09 07:02:31;;;;;;;0.10;0.10;;;22.30;82.40;;;;;;4193049;28;20424;-52
2021/07/09 07:04:53;;;;;;;0.00;0.00;;;22.20;82.20;;;;;;4209259;28;20052;-50
2021/07/09 07:07:15;;;;;;;0.00;0.00;;;22.20;82.20;;;;;;4210030;27;20048;-48
2021/07/09 07:09:38;;;;;;;0.00;0.00;;;22.30;82.20;;;;;;4207986;28;20097;-48
2021/07/09 07:12:04;;;;;;;0.05;0.05;;;22.30;82.20;;;;;;4192615;28;20403;-48
2021/07/09 07:14:28;;;;;;;0.52;0.52;;;22.30;83.00;;;;;;4192872;28;20083;-51
2021/07/09 07:16:50;;;;;;;0.00;0.00;;;22.30;82.10;;;;;;4200829;28;20462;-51
2021/07/09 07:19:12;;;;;;;0.17;0.17;;;22.30;81.90;;;;;;4209696;28;20052;-50
2021/07/09 07:21:34;;;;;;;0.10;0.10;;;22.30;81.70;;;;;;4209395;28;20048;-52
2021/07/09 07:23:56;;;;;;;0.00;0.00;;;22.30;81.60;;;;;;4209604;28;20067;-51
2021/07/09 07:26:22;;;;;;;0.98;0.47;;;22.30;81.60;;;;;;4209468;28;20051;-49
2021/07/09 07:28:44;;;;;;;0.50;0.50;;;22.30;81.60;;;;;;4209573;28;20075;-49
2021/07/09 07:31:08;;;;;;;0.00;0.00;;;22.30;81.60;;;;;;4209631;28;20139;-47
2021/07/09 07:33:30;;;;;;;0.00;0.00;;;22.30;81.60;;;;;;4209080;28;20508;-47
2021/07/09 07:36:07;;;;;;;0.00;0.00;;;22.30;81.60;;;;;;4209178;28;20067;-49
2021/07/09 07:38:28;;;;;;;0.00;0.00;;;22.30;81.60;;;;;;4192568;28;20139;-51
2021/07/09 07:40:51;;;;;;;0.80;0.80;;;22.30;81.50;;;;;;4203944;28;20044;-50
2021/07/09 07:43:12;;;;;;;0.20;0.20;;;22.40;81.30;;;;;;4209225;28;20036;-48
2021/07/09 07:45:35;;;;;;;0.10;0.10;;;22.50;81.10;;;;;;4207541;28;20060;-52
2021/07/09 07:48:02;;;;;;;0.05;0.05;;;22.50;80.80;;;;;;4209610;28;20055;-49
2021/07/09 07:50:25;;;;;;;0.40;0.40;;;22.60;80.60;;;;;;4209156;28;20052;-50
2021/07/09 07:52:48;;;;;;;0.00;0.00;;;22.60;80.40;;;;;;4207269;28;20045;-48
2021/07/09 07:55:11;;;;;;;0.10;0.10;;;22.60;80.20;;;;;;4208447;27;20093;-51
2021/07/09 07:57:32;;;;;;;0.05;0.05;;;22.70;80.10;;;;;;4208903;28;20052;-50
2021/07/09 07:59:55;;;;;;;0.00;0.00;;;22.70;79.90;;;;;;4209238;28;20052;-50
2021/07/09 08:02:17;;;;;;;0.40;0.40;;;22.70;79.70;;;;;;4208660;28;20052;-48
2021/07/09 08:04:41;;;;;;;11.45;0.85;;;22.70;79.70;;;;;;4208468;28;20066;-46
2021/07/09 08:07:03;;;;;;;0.80;0.32;;;22.60;79.80;;;;;;4208623;28;20055;-47
2021/07/09 08:09:26;;;;;;;0.20;0.20;;;22.60;79.90;;;;;;4195722;28;20056;-50
2021/07/09 08:11:50;;;;;;;0.55;0.55;;;22.60;80.00;;;;;;4209225;28;20513;-51
2021/07/09 08:14:13;;;;;;;0.10;0.10;;;22.60;80.10;;;;;;4208438;28;20056;-47
2021/07/09 08:16:35;;;;;;;0.10;0.10;;;22.60;80.10;;;;;;4208673;28;20044;-49
2021/07/09 08:18:57;;;;;;;0.50;0.50;;;22.60;80.30;;;;;;4208621;28;20051;-48
2021/07/09 08:21:21;;;;;;;0.00;0.00;;;22.60;80.30;;;;;;4191966;28;20132;-48
2021/07/09 08:23:43;;;;;;;6.00;0.68;;;22.50;80.10;;;;;;4191943;28;20059;-50
2021/07/09 08:26:05;;;;;;;0.00;0.00;;;22.50;80.30;;;;;;4191645;28;20102;-49
2021/07/09 08:28:29;;;;;;;1.35;1.17;;;22.50;80.20;;;;;;4207164;28;20060;-48
2021/07/09 08:30:51;;;;;;;0.10;0.10;;;22.50;80.20;;;;;;4208543;28;20481;-49
2021/07/09 08:33:13;;;;;;;1.65;0.57;;;22.50;80.20;;;;;;4208552;28;20071;-52
2021/07/09 08:35:34;;;;;;;0.10;0.10;;;22.50;80.10;;;;;;4206514;28;20047;-53
2021/07/09 08:37:59;;;;;;;0.10;0.10;;;22.50;80.10;;;;;;4208423;28;20048;-50
2021/07/09 08:40:21;;;;;;;0.00;0.00;;;22.60;80.10;;;;;;4207871;28;20124;-50
2021/07/09 08:42:43;;;;;;;3.40;1.40;;;22.60;80.00;;;;;;4208424;28;20055;-50
2021/07/09 08:45:07;;;;;;;0.00;0.00;;;22.60;79.90;;;;;;4206639;28;20135;-48
2021/07/09 08:47:30;;;;;;;18.88;1.25;;;22.60;79.80;;;;;;4208056;28;20052;-50
2021/07/09 08:49:52;;;;;;;0.47;0.47;;;22.60;79.70;;;;;;4207205;28;20441;-49
2021/07/09 08:52:14;;;;;;;0.00;0.00;;;22.70;79.60;;;;;;4208413;28;20126;-51
2021/07/09 08:54:37;;;;;;;0.40;0.40;;;22.70;79.60;;;;;;4207445;28;20048;-53
2021/07/09 08:56:59;;;;;;;0.10;0.10;;;22.70;79.40;;;;;;4208188;28;20535;-49
2021/07/09 08:59:23;;;;;;;0.00;0.00;;;22.70;79.30;;;;;;4208211;28;20048;-49
2021/07/09 09:01:50;;;;;;;0.00;0.00;;;22.70;79.10;;;;;;4208242;28;20039;-51
2021/07/09 09:04:12;;;;;;;0.30;0.30;;;22.80;79.10;;;;;;4207655;28;20055;-51
2021/07/09 09:06:34;;;;;;;0.30;0.30;;;22.80;78.90;;;;;;4208319;28;20089;-51
2021/07/09 09:08:56;;;;;;;1.55;0.80;;;22.80;78.80;;;;;;4207842;28;20048;-49
2021/07/09 09:11:20;;;;;;;0.38;0.38;;;22.90;78.60;;;;;;4208293;28;20059;-48
2021/07/09 09:13:43;;;;;;;0.00;0.00;;;22.90;78.50;;;;;;4207986;28;20067;-48
2021/07/09 09:16:10;;;;;;;0.20;0.20;;;22.90;78.30;;;;;;4207733;28;20071;-49
2021/07/09 09:18:33;;;;;;;0.00;0.00;;;22.90;78.20;;;;;;4207610;28;20051;-49
2021/07/09 09:21:00;;;;;;;0.00;0.00;;;22.90;78.20;;;;;;4207777;28;20105;-51
2021/07/09 09:23:23;;;;;;;0.10;0.10;;;22.90;78.30;;;;;;4207832;28;20486;-50
2021/07/09 09:25:45;;;;;;;0.20;0.20;;;22.90;78.20;;;;;;4199468;28;20044;-51
2021/07/09 09:28:11;;;;;;;1.55;1.10;;;22.90;78.00;;;;;;4208050;28;20044;-47
2021/07/09 09:30:34;;;;;;;0.60;0.32;;;22.90;78.10;;;;;;4235607;28;20043;-50
2021/07/09 09:32:56;;;;;;;0.20;0.20;;;22.90;78.20;;;;;;4207970;28;20052;-49
2021/07/09 09:35:22;;;;;;;0.20;0.20;;;22.90;79.10;;;;;;4207771;28;20452;-49
2021/07/09 09:37:51;;;;;;;1.08;0.45;;;22.90;78.20;;;;;;4205939;28;20101;-50
2021/07/09 09:40:17;;;;;;;0.20;0.20;;;22.90;78.20;;;;;;4207219;28;20520;-53
2021/07/09 09:42:42;;;;;;;0.20;0.20;;;22.90;78.10;;;;;;4206576;27;20569;-51
2021/07/09 09:45:07;;;;;;;0.00;0.00;;;23.00;77.90;;;;;;4204369;27;20056;-51
2021/07/09 09:47:31;;;;;;;0.15;0.15;;;23.00;77.60;;;;;;4191006;28;20055;-48
2021/07/09 09:49:56;;;;;;;0.77;0.77;;;23.00;77.40;;;;;;4190874;28;20052;-50
2021/07/09 09:52:33;;;;;;;0.00;0.00;;;23.10;77.20;;;;;;4190825;28;20049;-53
2021/07/09 09:54:56;;;;;;;0.03;0.03;;;23.10;77.10;;;;;;4190528;28;20556;-49
2021/07/09 09:57:17;;;;;;;0.17;0.17;;;23.10;77.00;;;;;;4190852;28;20566;-52
2021/07/09 09:59:42;;;;;;;0.00;0.00;;;23.20;76.90;;;;;;4190871;28;20635;-51
2021/07/09 10:02:06;;;;;;;0.00;0.00;;;23.20;76.80;;;;;;4190179;28;20056;-52
2021/07/09 10:04:29;;;;;;;0.20;0.20;;;23.30;76.70;;;;;;4191146;28;20052;-52
2021/07/09 10:06:52;;;;;;;0.65;0.65;;;23.30;76.40;;;;;;4194117;28;20461;-52
2021/07/09 10:09:15;;;;;;;2.95;0.77;;;23.30;76.10;;;;;;4193896;28;20062;-52
2021/07/09 10:11:38;;;;;;;0.00;0.00;;;23.30;76.00;;;;;;4194041;28;20056;-52
2021/07/09 10:14:01;;;;;;;0.10;0.10;;;23.30;76.80;;;;;;4206036;28;20132;-50
2021/07/09 10:16:24;;;;;;;0.00;0.00;;;23.30;75.90;;;;;;4210885;28;20048;-49
2021/07/09 10:18:51;;;;;;;0.00;0.00;;;23.40;75.90;;;;;;4210213;28;20532;-50
2021/07/09 10:21:13;;;;;;;0.00;0.00;;;23.40;75.70;;;;;;4210454;28;20105;-49
2021/07/09 10:23:35;;;;;;;0.05;0.05;;;23.40;75.60;;;;;;4208841;28;20055;-48
2021/07/09 10:25:57;;;;;;;0.30;0.30;;;23.50;75.70;;;;;;4209311;28;20055;-53
2021/07/09 10:28:22;;;;;;;0.85;0.28;;;23.50;75.50;;;;;;4210532;28;20810;-53
2021/07/09 10:30:45;;;;;;;0.00;0.00;;;23.50;75.40;;;;;;4210410;28;20060;-48
2021/07/09 10:33:28;;;;;;;0.00;0.00;;;23.50;75.30;;;;;;4209034;28;20449;-50
2021/07/09 10:35:52;;;;;;;0.08;0.08;;;23.50;75.10;;;;;;4210223;28;20048;-50
2021/07/09 10:38:17;;;;;;;0.17;0.17;;;23.50;75.10;;;;;;4210277;28;20558;-52
2021/07/09 10:40:39;;;;;;;0.00;0.00;;;23.60;75.00;;;;;;4210540;28;20128;-47
2021/07/09 10:43:02;;;;;;;0.00;0.00;;;23.60;74.90;;;;;;4210371;28;20444;-54
2021/07/09 10:45:25;;;;;;;0.38;0.38;;;23.60;74.70;;;;;;4210049;28;20555;-49
2021/07/09 10:47:51;;;;;;;0.03;0.03;;;23.60;74.70;;;;;;4210443;28;20047;-49
2021/07/09 10:50:15;;;;;;;2.70;0.82;;;23.60;74.70;;;;;;4210133;28;20140;-50
2021/07/09 10:52:57;;;;;;;0.00;0.00;;;23.60;74.70;;;;;;4209759;28;20413;-52
2021/07/09 10:55:43;;;;;;;0.35;0.35;;;23.60;74.70;;;;;;4210172;28;20456;-51
2021/07/09 10:58:20;;;;;;;0.08;0.08;;;23.70;74.60;;;;;;4210245;28;20112;-49
2021/07/09 11:00:44;;;;;;;0.30;0.30;;;23.70;74.60;;;;;;4209963;28;20044;-51
2021/07/09 11:03:07;;;;;;;0.93;0.93;;;23.70;74.50;;;;;;4210209;28;20417;-51
2021/07/09 11:05:58;;;;;;;0.20;0.20;;;23.70;74.50;;;;;;4209975;28;20047;-51
2021/07/09 11:08:44;;;;;;;0.20;0.20;;;23.80;74.40;;;;;;4209699;28;20523;-50
2021/07/09 11:11:13;;;;;;;0.43;0.43;;;23.80;74.40;;;;;;4209097;28;20475;-48
2021/07/09 11:13:49;;;;;;;4.47;1.17;;;23.80;74.30;;;;;;4209562;28;20044;-54
2021/07/09 11:16:25;;;;;;;0.30;0.30;;;23.80;74.10;;;;;;4209684;28;20047;-49
2021/07/09 11:18:53;;;;;;;0.05;0.05;;;23.80;74.00;;;;;;4209459;28;20044;-52
2021/07/09 11:21:54;;;;;;;1.00;1.00;;;23.80;73.90;;;;;;4210086;28;20137;-50
2021/07/09 11:24:24;;;;;;;1.23;0.85;;;23.80;73.80;;;;;;4192374;28;20466;-50
2021/07/09 11:26:52;;;;;;;0.10;0.10;;;23.80;73.70;;;;;;4207587;28;20177;-54
2021/07/09 11:29:24;;;;;;;0.08;0.08;;;23.90;73.60;;;;;;4209702;28;20047;-55
2021/07/09 11:31:53;;;;;;;0.35;0.35;;;23.90;73.50;;;;;;4209299;28;20091;-51
2021/07/09 11:34:17;;;;;;;0.00;0.00;;;23.90;73.40;;;;;;4206323;28;20119;-50
2021/07/09 11:36:41;;;;;;;1.17;0.77;;;23.90;73.20;;;;;;4209403;28;20051;-51
2021/07/09 11:39:08;;;;;;;6.22;1.95;;;24.00;73.20;;;;;;4208559;27;20062;-49
2021/07/09 11:41:31;;;;;;;0.15;0.15;;;24.00;73.10;;;;;;4208865;28;20140;-52
2021/07/09 11:43:54;;;;;;;0.43;0.35;;;24.00;73.10;;;;;;4209027;28;20044;-48
2021/07/09 11:46:17;;;;;;;0.20;0.20;;;24.10;72.80;;;;;;4209238;28;20048;-52
2021/07/09 11:48:39;;;;;;;0.40;0.40;;;24.10;72.70;;;;;;4209278;28;20044;-52
2021/07/09 11:51:07;;;;;;;0.38;0.38;;;24.10;72.60;;;;;;4209348;28;20052;-49
2021/07/09 11:53:29;;;;;;;0.08;0.08;;;24.10;72.30;;;;;;4208694;28;20044;-49
2021/07/09 11:55:51;;;;;;;0.00;0.00;;;24.20;72.10;;;;;;4209295;28;20457;-52
2021/07/09 11:58:15;;;;;;;0.52;0.52;;;24.20;72.10;;;;;;4209405;28;20051;-51
2021/07/09 12:00:37;;;;;;;0.00;0.00;;;24.20;72.00;;;;;;4209014;28;20502;-51
2021/07/09 12:03:00;;;;;;;0.80;0.40;;;24.20;72.00;;;;;;4208843;28;20044;-49
2021/07/09 12:05:23;;;;;;;0.17;0.17;;;24.20;72.00;;;;;;4208477;28;20044;-50
2021/07/09 12:07:46;;;;;;;0.08;0.08;;;24.20;72.10;;;;;;4208954;28;20052;-53
2021/07/09 12:10:11;;;;;;;0.00;0.00;;;24.20;72.10;;;;;;4208567;28;20098;-51
2021/07/09 12:12:35;;;;;;;0.00;0.00;;;24.20;72.30;;;;;;4208278;28;20131;-51
2021/07/09 12:15:11;;;;;;;0.00;0.00;;;24.20;72.10;;;;;;4208076;28;20044;-51
2021/07/09 12:17:35;;;;;;;0.00;0.00;;;24.20;72.10;;;;;;4208219;28;20044;-56
2021/07/09 12:20:05;;;;;;;0.10;0.10;;;24.20;72.00;;;;;;4191819;28;20055;-49
2021/07/09 12:22:30;;;;;;;0.20;0.20;;;24.20;71.90;;;;;;4182893;28;20053;-51
2021/07/09 12:24:53;;;;;;;0.00;0.00;;;24.30;71.90;;;;;;4207393;27;20078;-54
2021/07/09 12:27:15;;;;;;;0.63;0.63;;;24.30;71.80;;;;;;4208590;27;20148;-50
2021/07/09 12:29:39;;;;;;;0.00;0.00;;;24.30;71.70;;;;;;4207470;28;20564;-52